sensor_id;sensor_type;location;lat;lon;timestamp;P1;durP1;ratioP1;P2;durP2;ratioP2
32152;SDS011;18656;50.580;11.392;2023-02-03T00:02:26;30.58;;;18.73;;
32152;SDS011;18656;50.580;11.392;2023-02-03T00:04:53;23.23;;;14.95;;
32152;SDS011;18656;50.580;11.392;2023-02-03T00:07:20;27.48;;;15.75;;
32152;SDS011;18656;50.580;11.392;2023-02-03T00:09:47;20.95;;;13.55;;
32152;SDS011;18656;50.580;11.392;2023-02-03T00:12:14;9.02;;;7.25;;
32152;SDS011;18656;50.580;11.392;2023-02-03T00:14:41;4.30;;;3.25;;
32152;SDS011;18656;50.580;11.392;2023-02-03T00:17:09;1.75;;;1.48;;
32152;SDS011;18656;50.580;11.392;2023-02-03T00:19:36;6.50;;;4.47;;
32152;SDS011;18656;50.580;11.392;2023-02-03T00:22:03;8.63;;;4.43;;
32152;SDS011;18656;50.580;11.392;2023-02-03T00:24:31;1.20;;;1.20;;
32152;SDS011;18656;50.580;11.392;2023-02-03T00:26:58;1.35;;;1.25;;
32152;SDS011;18656;50.580;11.392;2023-02-03T00:29:25;1.48;;;1.00;;
32152;SDS011;18656;50.580;11.392;2023-02-03T00:31:52;4.05;;;2.92;;
32152;SDS011;18656;50.580;11.392;2023-02-03T00:34:20;11.02;;;7.28;;
32152;SDS011;18656;50.580;11.392;2023-02-03T00:36:47;1.33;;;1.15;;
32152;SDS011;18656;50.580;11.392;2023-02-03T00:39:14;4.18;;;1.15;;
32152;SDS011;18656;50.580;11.392;2023-02-03T00:41:42;13.18;;;6.18;;
32152;SDS011;18656;50.580;11.392;2023-02-03T00:44:09;5.93;;;4.65;;
32152;SDS011;18656;50.580;11.392;2023-02-03T00:46:36;7.28;;;5.68;;
32152;SDS011;18656;50.580;11.392;2023-02-03T00:49:04;7.53;;;6.22;;
32152;SDS011;18656;50.580;11.392;2023-02-03T00:51:32;1.02;;;1.02;;
32152;SDS011;18656;50.580;11.392;2023-02-03T00:53:59;1.52;;;0.73;;
32152;SDS011;18656;50.580;11.392;2023-02-03T00:56:26;7.10;;;5.28;;
32152;SDS011;18656;50.580;11.392;2023-02-03T00:58:53;7.72;;;4.90;;
32152;SDS011;18656;50.580;11.392;2023-02-03T01:01:21;7.55;;;4.30;;
32152;SDS011;18656;50.580;11.392;2023-02-03T01:03:50;1.10;;;1.10;;
32152;SDS011;18656;50.580;11.392;2023-02-03T01:06:18;2.05;;;1.00;;
32152;SDS011;18656;50.580;11.392;2023-02-03T01:08:46;2.35;;;1.80;;
32152;SDS011;18656;50.580;11.392;2023-02-03T01:11:14;1.95;;;1.08;;
32152;SDS011;18656;50.580;11.392;2023-02-03T01:13:42;1.33;;;1.27;;
32152;SDS011;18656;50.580;11.392;2023-02-03T01:16:11;2.05;;;1.77;;
32152;SDS011;18656;50.580;11.392;2023-02-03T01:18:38;2.45;;;2.25;;
32152;SDS011;18656;50.580;11.392;2023-02-03T01:21:06;2.33;;;1.92;;
32152;SDS011;18656;50.580;11.392;2023-02-03T01:23:34;1.80;;;1.40;;
32152;SDS011;18656;50.580;11.392;2023-02-03T01:26:02;1.20;;;1.17;;
32152;SDS011;18656;50.580;11.392;2023-02-03T01:28:30;2.13;;;1.90;;
32152;SDS011;18656;50.580;11.392;2023-02-03T01:30:57;3.13;;;2.70;;
32152;SDS011;18656;50.580;11.392;2023-02-03T01:33:24;4.07;;;2.80;;
32152;SDS011;18656;50.580;11.392;2023-02-03T01:35:51;3.08;;;2.70;;
32152;SDS011;18656;50.580;11.392;2023-02-03T01:38:19;7.07;;;3.28;;
32152;SDS011;18656;50.580;11.392;2023-02-03T01:40:46;3.30;;;2.80;;
32152;SDS011;18656;50.580;11.392;2023-02-03T01:43:27;1.38;;;1.27;;
32152;SDS011;18656;50.580;11.392;2023-02-03T01:45:55;2.75;;;2.55;;
32152;SDS011;18656;50.580;11.392;2023-02-03T01:48:22;4.15;;;3.50;;
32152;SDS011;18656;50.580;11.392;2023-02-03T01:50:50;6.80;;;3.40;;
32152;SDS011;18656;50.580;11.392;2023-02-03T01:53:17;4.88;;;4.00;;
32152;SDS011;18656;50.580;11.392;2023-02-03T01:55:46;5.95;;;3.22;;
32152;SDS011;18656;50.580;11.392;2023-02-03T01:58:18;7.57;;;5.75;;
32152;SDS011;18656;50.580;11.392;2023-02-03T02:00:50;5.25;;;3.75;;
32152;SDS011;18656;50.580;11.392;2023-02-03T02:03:19;3.28;;;2.97;;
32152;SDS011;18656;50.580;11.392;2023-02-03T02:05:48;5.63;;;3.67;;
32152;SDS011;18656;50.580;11.392;2023-02-03T02:08:17;4.63;;;3.03;;
32152;SDS011;18656;50.580;11.392;2023-02-03T02:10:44;3.70;;;3.20;;
32152;SDS011;18656;50.580;11.392;2023-02-03T02:13:12;6.47;;;3.97;;
32152;SDS011;18656;50.580;11.392;2023-02-03T02:18:45;3.17;;;2.90;;
32152;SDS011;18656;50.580;11.392;2023-02-03T02:23:51;3.60;;;3.00;;
32152;SDS011;18656;50.580;11.392;2023-02-03T02:26:36;9.10;;;3.67;;
32152;SDS011;18656;50.580;11.392;2023-02-03T02:34:32;4.70;;;4.28;;
32152;SDS011;18656;50.580;11.392;2023-02-03T02:42:39;4.40;;;4.00;;
32152;SDS011;18656;50.580;11.392;2023-02-03T02:47:35;3.85;;;3.55;;
32152;SDS011;18656;50.580;11.392;2023-02-03T02:50:05;3.05;;;2.85;;
32152;SDS011;18656;50.580;11.392;2023-02-03T02:52:33;3.00;;;2.80;;
32152;SDS011;18656;50.580;11.392;2023-02-03T02:55:04;4.88;;;3.08;;
32152;SDS011;18656;50.580;11.392;2023-02-03T02:57:33;4.30;;;3.63;;
32152;SDS011;18656;50.580;11.392;2023-02-03T03:00:03;7.43;;;3.70;;
32152;SDS011;18656;50.580;11.392;2023-02-03T03:02:31;4.22;;;3.63;;
32152;SDS011;18656;50.580;11.392;2023-02-03T03:05:00;11.45;;;4.47;;
32152;SDS011;18656;50.580;11.392;2023-02-03T03:07:28;5.97;;;4.50;;
32152;SDS011;18656;50.580;11.392;2023-02-03T03:09:58;6.50;;;3.90;;
32152;SDS011;18656;50.580;11.392;2023-02-03T03:12:28;9.45;;;4.60;;
32152;SDS011;18656;50.580;11.392;2023-02-03T03:14:57;7.70;;;4.50;;
32152;SDS011;18656;50.580;11.392;2023-02-03T03:17:27;9.15;;;5.05;;
32152;SDS011;18656;50.580;11.392;2023-02-03T03:19:56;8.60;;;4.40;;
32152;SDS011;18656;50.580;11.392;2023-02-03T03:22:26;7.28;;;5.32;;
32152;SDS011;18656;50.580;11.392;2023-02-03T03:25:00;9.65;;;5.95;;
32152;SDS011;18656;50.580;11.392;2023-02-03T03:27:30;7.38;;;5.75;;
32152;SDS011;18656;50.580;11.392;2023-02-03T03:29:59;7.70;;;6.05;;
32152;SDS011;18656;50.580;11.392;2023-02-03T03:32:28;13.43;;;7.18;;
32152;SDS011;18656;50.580;11.392;2023-02-03T03:34:58;12.48;;;6.65;;
32152;SDS011;18656;50.580;11.392;2023-02-03T03:37:37;7.32;;;6.00;;
32152;SDS011;18656;50.580;11.392;2023-02-03T03:40:16;5.75;;;5.07;;
32152;SDS011;18656;50.580;11.392;2023-02-03T03:42:47;18.88;;;10.20;;
32152;SDS011;18656;50.580;11.392;2023-02-03T03:45:34;17.83;;;12.23;;
32152;SDS011;18656;50.580;11.392;2023-02-03T03:48:13;8.02;;;6.18;;
32152;SDS011;18656;50.580;11.392;2023-02-03T03:50:43;12.07;;;7.28;;
32152;SDS011;18656;50.580;11.392;2023-02-03T03:53:12;8.60;;;6.55;;
32152;SDS011;18656;50.580;11.392;2023-02-03T03:55:41;12.13;;;6.78;;
32152;SDS011;18656;50.580;11.392;2023-02-03T04:00:36;10.20;;;8.02;;
32152;SDS011;18656;50.580;11.392;2023-02-03T04:03:06;10.52;;;7.95;;
32152;SDS011;18656;50.580;11.392;2023-02-03T04:05:37;10.98;;;8.00;;
32152;SDS011;18656;50.580;11.392;2023-02-03T04:08:05;8.20;;;7.32;;
32152;SDS011;18656;50.580;11.392;2023-02-03T04:10:33;8.02;;;7.22;;
32152;SDS011;18656;50.580;11.392;2023-02-03T04:13:01;7.13;;;6.00;;
32152;SDS011;18656;50.580;11.392;2023-02-03T04:15:29;6.32;;;5.72;;
32152;SDS011;18656;50.580;11.392;2023-02-03T04:17:58;8.88;;;5.00;;
32152;SDS011;18656;50.580;11.392;2023-02-03T04:20:27;4.60;;;4.20;;
32152;SDS011;18656;50.580;11.392;2023-02-03T04:22:55;4.60;;;3.95;;
32152;SDS011;18656;50.580;11.392;2023-02-03T04:25:23;4.25;;;3.47;;
32152;SDS011;18656;50.580;11.392;2023-02-03T04:27:50;6.18;;;3.33;;
32152;SDS011;18656;50.580;11.392;2023-02-03T04:30:17;3.13;;;2.60;;
32152;SDS011;18656;50.580;11.392;2023-02-03T04:32:45;2.33;;;2.20;;
32152;SDS011;18656;50.580;11.392;2023-02-03T04:35:12;2.67;;;2.15;;
32152;SDS011;18656;50.580;11.392;2023-02-03T04:37:39;2.40;;;2.10;;
32152;SDS011;18656;50.580;11.392;2023-02-03T04:40:07;2.45;;;2.20;;
32152;SDS011;18656;50.580;11.392;2023-02-03T04:42:35;2.22;;;1.67;;
32152;SDS011;18656;50.580;11.392;2023-02-03T04:45:04;2.55;;;2.30;;
32152;SDS011;18656;50.580;11.392;2023-02-03T04:47:32;5.90;;;2.40;;
32152;SDS011;18656;50.580;11.392;2023-02-03T04:49:59;2.10;;;2.00;;
32152;SDS011;18656;50.580;11.392;2023-02-03T04:52:26;4.45;;;1.90;;
32152;SDS011;18656;50.580;11.392;2023-02-03T04:54:53;4.07;;;3.45;;
32152;SDS011;18656;50.580;11.392;2023-02-03T04:57:21;8.40;;;5.10;;
32152;SDS011;18656;50.580;11.392;2023-02-03T04:59:48;4.20;;;2.60;;
32152;SDS011;18656;50.580;11.392;2023-02-03T05:02:15;3.55;;;3.10;;
32152;SDS011;18656;50.580;11.392;2023-02-03T05:04:42;5.78;;;2.70;;
32152;SDS011;18656;50.580;11.392;2023-02-03T05:07:10;3.70;;;1.95;;
32152;SDS011;18656;50.580;11.392;2023-02-03T05:09:37;5.20;;;1.58;;
32152;SDS011;18656;50.580;11.392;2023-02-03T05:12:04;1.95;;;1.15;;
32152;SDS011;18656;50.580;11.392;2023-02-03T05:14:31;2.72;;;1.40;;
32152;SDS011;18656;50.580;11.392;2023-02-03T05:16:58;3.55;;;0.88;;
32152;SDS011;18656;50.580;11.392;2023-02-03T05:19:26;0.93;;;0.93;;
32152;SDS011;18656;50.580;11.392;2023-02-03T05:21:53;2.08;;;1.13;;
32152;SDS011;18656;50.580;11.392;2023-02-03T05:24:20;7.53;;;1.10;;
32152;SDS011;18656;50.580;11.392;2023-02-03T05:26:47;5.43;;;1.10;;
32152;SDS011;18656;50.580;11.392;2023-02-03T05:29:15;3.03;;;1.17;;
32152;SDS011;18656;50.580;11.392;2023-02-03T05:31:42;1.95;;;0.60;;
32152;SDS011;18656;50.580;11.392;2023-02-03T05:34:09;0.75;;;0.70;;
32152;SDS011;18656;50.580;11.392;2023-02-03T05:36:38;6.35;;;0.80;;
32152;SDS011;18656;50.580;11.392;2023-02-03T05:39:05;8.40;;;1.83;;
32152;SDS011;18656;50.580;11.392;2023-02-03T05:41:32;3.15;;;1.10;;
32152;SDS011;18656;50.580;11.392;2023-02-03T05:44:19;0.90;;;0.70;;
32152;SDS011;18656;50.580;11.392;2023-02-03T05:46:46;5.55;;;0.80;;
32152;SDS011;18656;50.580;11.392;2023-02-03T05:49:14;2.25;;;0.85;;
32152;SDS011;18656;50.580;11.392;2023-02-03T05:51:41;5.60;;;1.23;;
32152;SDS011;18656;50.580;11.392;2023-02-03T05:54:08;4.57;;;1.85;;
32152;SDS011;18656;50.580;11.392;2023-02-03T05:56:36;4.72;;;1.90;;
32152;SDS011;18656;50.580;11.392;2023-02-03T05:59:03;11.82;;;2.97;;
32152;SDS011;18656;50.580;11.392;2023-02-03T06:01:31;4.43;;;3.08;;
32152;SDS011;18656;50.580;11.392;2023-02-03T06:03:58;2.00;;;1.90;;
32152;SDS011;18656;50.580;11.392;2023-02-03T06:06:26;6.35;;;3.55;;
32152;SDS011;18656;50.580;11.392;2023-02-03T06:08:59;6.55;;;2.90;;
32152;SDS011;18656;50.580;11.392;2023-02-03T06:11:26;21.70;;;4.60;;
32152;SDS011;18656;50.580;11.392;2023-02-03T06:13:54;12.77;;;2.40;;
32152;SDS011;18656;50.580;11.392;2023-02-03T06:16:24;32.72;;;4.07;;
32152;SDS011;18656;50.580;11.392;2023-02-03T06:18:52;26.58;;;3.70;;
32152;SDS011;18656;50.580;11.392;2023-02-03T06:21:20;5.68;;;2.00;;
32152;SDS011;18656;50.580;11.392;2023-02-03T06:23:47;2.55;;;1.42;;
32152;SDS011;18656;50.580;11.392;2023-02-03T06:26:14;11.25;;;2.50;;
32152;SDS011;18656;50.580;11.392;2023-02-03T06:28:42;5.70;;;2.17;;
32152;SDS011;18656;50.580;11.392;2023-02-03T06:31:09;9.38;;;3.03;;
32152;SDS011;18656;50.580;11.392;2023-02-03T06:33:36;8.10;;;2.50;;
32152;SDS011;18656;50.580;11.392;2023-02-03T06:36:04;4.25;;;2.20;;
32152;SDS011;18656;50.580;11.392;2023-02-03T06:38:31;8.90;;;3.45;;
32152;SDS011;18656;50.580;11.392;2023-02-03T06:40:58;16.50;;;4.68;;
32152;SDS011;18656;50.580;11.392;2023-02-03T06:43:25;8.30;;;2.83;;
32152;SDS011;18656;50.580;11.392;2023-02-03T06:45:53;7.45;;;5.03;;
32152;SDS011;18656;50.580;11.392;2023-02-03T06:48:20;17.15;;;8.98;;
32152;SDS011;18656;50.580;11.392;2023-02-03T06:50:47;10.07;;;5.60;;
32152;SDS011;18656;50.580;11.392;2023-02-03T06:53:14;14.23;;;7.18;;
32152;SDS011;18656;50.580;11.392;2023-02-03T06:55:42;14.10;;;8.23;;
32152;SDS011;18656;50.580;11.392;2023-02-03T06:58:09;12.63;;;5.68;;
32152;SDS011;18656;50.580;11.392;2023-02-03T07:00:36;5.55;;;4.35;;
32152;SDS011;18656;50.580;11.392;2023-02-03T07:03:03;8.10;;;5.47;;
32152;SDS011;18656;50.580;11.392;2023-02-03T07:05:31;9.07;;;5.95;;
32152;SDS011;18656;50.580;11.392;2023-02-03T07:07:58;8.52;;;5.32;;
32152;SDS011;18656;50.580;11.392;2023-02-03T07:10:27;5.55;;;4.82;;
32152;SDS011;18656;50.580;11.392;2023-02-03T07:13:01;8.45;;;6.00;;
32152;SDS011;18656;50.580;11.392;2023-02-03T07:15:28;7.78;;;6.13;;
32152;SDS011;18656;50.580;11.392;2023-02-03T07:17:55;7.20;;;6.07;;
32152;SDS011;18656;50.580;11.392;2023-02-03T07:20:23;14.00;;;6.97;;
32152;SDS011;18656;50.580;11.392;2023-02-03T07:22:53;15.43;;;5.88;;
32152;SDS011;18656;50.580;11.392;2023-02-03T07:25:20;11.68;;;6.05;;
32152;SDS011;18656;50.580;11.392;2023-02-03T07:27:47;5.95;;;5.35;;
32152;SDS011;18656;50.580;11.392;2023-02-03T07:30:15;8.43;;;4.47;;
32152;SDS011;18656;50.580;11.392;2023-02-03T07:32:46;9.82;;;3.35;;
32152;SDS011;18656;50.580;11.392;2023-02-03T07:35:14;9.43;;;5.28;;
32152;SDS011;18656;50.580;11.392;2023-02-03T07:37:41;18.52;;;6.03;;
32152;SDS011;18656;50.580;11.392;2023-02-03T07:40:09;5.82;;;3.33;;
32152;SDS011;18656;50.580;11.392;2023-02-03T07:42:43;4.10;;;3.50;;
32152;SDS011;18656;50.580;11.392;2023-02-03T07:45:12;3.92;;;2.80;;
32152;SDS011;18656;50.580;11.392;2023-02-03T07:47:40;12.30;;;3.05;;
32152;SDS011;18656;50.580;11.392;2023-02-03T07:50:08;3.03;;;2.60;;
32152;SDS011;18656;50.580;11.392;2023-02-03T07:52:35;8.45;;;4.20;;
32152;SDS011;18656;50.580;11.392;2023-02-03T07:55:03;3.88;;;2.30;;
32152;SDS011;18656;50.580;11.392;2023-02-03T07:57:30;2.15;;;2.03;;
32152;SDS011;18656;50.580;11.392;2023-02-03T07:59:57;2.97;;;1.90;;
32152;SDS011;18656;50.580;11.392;2023-02-03T08:02:24;5.97;;;2.30;;
32152;SDS011;18656;50.580;11.392;2023-02-03T08:04:52;3.28;;;1.90;;
32152;SDS011;18656;50.580;11.392;2023-02-03T08:07:19;5.60;;;1.88;;
32152;SDS011;18656;50.580;11.392;2023-02-03T08:09:46;1.88;;;1.75;;
32152;SDS011;18656;50.580;11.392;2023-02-03T08:12:13;2.08;;;1.80;;
32152;SDS011;18656;50.580;11.392;2023-02-03T08:14:41;4.05;;;2.00;;
32152;SDS011;18656;50.580;11.392;2023-02-03T08:17:08;2.35;;;2.13;;
32152;SDS011;18656;50.580;11.392;2023-02-03T08:19:35;4.10;;;2.20;;
32152;SDS011;18656;50.580;11.392;2023-02-03T08:22:02;4.80;;;2.28;;
32152;SDS011;18656;50.580;11.392;2023-02-03T08:24:29;4.93;;;2.80;;
32152;SDS011;18656;50.580;11.392;2023-02-03T08:26:57;3.35;;;2.50;;
32152;SDS011;18656;50.580;11.392;2023-02-03T08:29:25;4.72;;;2.50;;
32152;SDS011;18656;50.580;11.392;2023-02-03T08:31:52;4.75;;;2.50;;
32152;SDS011;18656;50.580;11.392;2023-02-03T08:34:20;5.53;;;2.72;;
32152;SDS011;18656;50.580;11.392;2023-02-03T08:36:47;3.53;;;3.05;;
32152;SDS011;18656;50.580;11.392;2023-02-03T08:39:14;7.07;;;4.50;;
32152;SDS011;18656;50.580;11.392;2023-02-03T08:41:42;3.72;;;3.13;;
32152;SDS011;18656;50.580;11.392;2023-02-03T08:44:09;3.50;;;2.95;;
32152;SDS011;18656;50.580;11.392;2023-02-03T08:46:36;7.53;;;3.03;;
32152;SDS011;18656;50.580;11.392;2023-02-03T08:49:09;2.80;;;2.47;;
32152;SDS011;18656;50.580;11.392;2023-02-03T08:51:36;7.38;;;2.50;;
32152;SDS011;18656;50.580;11.392;2023-02-03T08:54:03;5.15;;;1.98;;
32152;SDS011;18656;50.580;11.392;2023-02-03T08:56:31;5.50;;;3.22;;
32152;SDS011;18656;50.580;11.392;2023-02-03T08:58:59;4.15;;;2.50;;
32152;SDS011;18656;50.580;11.392;2023-02-03T09:01:26;5.10;;;3.00;;
32152;SDS011;18656;50.580;11.392;2023-02-03T09:03:54;9.52;;;2.30;;
32152;SDS011;18656;50.580;11.392;2023-02-03T09:06:21;5.28;;;1.65;;
32152;SDS011;18656;50.580;11.392;2023-02-03T09:08:51;3.45;;;2.28;;
32152;SDS011;18656;50.580;11.392;2023-02-03T09:11:18;1.85;;;1.60;;
32152;SDS011;18656;50.580;11.392;2023-02-03T09:13:45;2.70;;;1.60;;
32152;SDS011;18656;50.580;11.392;2023-02-03T09:16:14;3.45;;;0.88;;
32152;SDS011;18656;50.580;11.392;2023-02-03T09:18:46;1.93;;;1.43;;
32152;SDS011;18656;50.580;11.392;2023-02-03T09:21:13;2.17;;;1.35;;
32152;SDS011;18656;50.580;11.392;2023-02-03T09:24:02;1.48;;;1.33;;
32152;SDS011;18656;50.580;11.392;2023-02-03T09:26:29;1.55;;;1.20;;
32152;SDS011;18656;50.580;11.392;2023-02-03T09:28:56;0.90;;;0.90;;
32152;SDS011;18656;50.580;11.392;2023-02-03T09:31:24;4.28;;;1.08;;
32152;SDS011;18656;50.580;11.392;2023-02-03T09:33:51;1.27;;;1.17;;
32152;SDS011;18656;50.580;11.392;2023-02-03T09:36:18;1.50;;;1.40;;
32152;SDS011;18656;50.580;11.392;2023-02-03T09:38:45;0.85;;;0.85;;
32152;SDS011;18656;50.580;11.392;2023-02-03T09:41:16;1.00;;;1.00;;
32152;SDS011;18656;50.580;11.392;2023-02-03T09:43:54;2.00;;;1.43;;
32152;SDS011;18656;50.580;11.392;2023-02-03T09:46:24;1.85;;;1.00;;
32152;SDS011;18656;50.580;11.392;2023-02-03T09:48:53;1.65;;;1.40;;
32152;SDS011;18656;50.580;11.392;2023-02-03T09:51:23;1.55;;;1.05;;
32152;SDS011;18656;50.580;11.392;2023-02-03T09:53:56;2.63;;;1.13;;
32152;SDS011;18656;50.580;11.392;2023-02-03T09:56:33;0.90;;;0.90;;
32152;SDS011;18656;50.580;11.392;2023-02-03T09:59:02;2.95;;;0.70;;
32152;SDS011;18656;50.580;11.392;2023-02-03T10:01:33;0.77;;;0.77;;
32152;SDS011;18656;50.580;11.392;2023-02-03T10:04:06;0.95;;;0.85;;
32152;SDS011;18656;50.580;11.392;2023-02-03T10:06:36;0.82;;;0.77;;
32152;SDS011;18656;50.580;11.392;2023-02-03T10:14:40;1.15;;;0.60;;
32152;SDS011;18656;50.580;11.392;2023-02-03T10:19:58;0.63;;;0.30;;
32152;SDS011;18656;50.580;11.392;2023-02-03T10:22:27;0.50;;;0.50;;
32152;SDS011;18656;50.580;11.392;2023-02-03T10:27:34;1.17;;;0.30;;
32152;SDS011;18656;50.580;11.392;2023-02-03T10:32:31;1.95;;;0.32;;
32152;SDS011;18656;50.580;11.392;2023-02-03T10:34:59;1.27;;;0.20;;
32152;SDS011;18656;50.580;11.392;2023-02-03T10:39:55;0.65;;;0.40;;
32152;SDS011;18656;50.580;11.392;2023-02-03T10:42:23;0.80;;;0.43;;
32152;SDS011;18656;50.580;11.392;2023-02-03T10:44:52;1.45;;;0.30;;
32152;SDS011;18656;50.580;11.392;2023-02-03T10:47:27;1.35;;;0.35;;
32152;SDS011;18656;50.580;11.392;2023-02-03T10:49:56;0.32;;;0.32;;
32152;SDS011;18656;50.580;11.392;2023-02-03T10:52:25;0.20;;;0.10;;
32152;SDS011;18656;50.580;11.392;2023-02-03T10:54:53;0.55;;;0.22;;
32152;SDS011;18656;50.580;11.392;2023-02-03T10:57:21;0.35;;;0.35;;
32152;SDS011;18656;50.580;11.392;2023-02-03T10:59:48;0.30;;;0.30;;
32152;SDS011;18656;50.580;11.392;2023-02-03T11:02:28;0.40;;;0.40;;
32152;SDS011;18656;50.580;11.392;2023-02-03T11:07:42;0.30;;;0.30;;
32152;SDS011;18656;50.580;11.392;2023-02-03T11:15:43;1.02;;;0.40;;
32152;SDS011;18656;50.580;11.392;2023-02-03T11:20:56;1.40;;;0.40;;
32152;SDS011;18656;50.580;11.392;2023-02-03T11:23:24;0.28;;;0.28;;
32152;SDS011;18656;50.580;11.392;2023-02-03T11:25:52;2.00;;;0.50;;
32152;SDS011;18656;50.580;11.392;2023-02-03T11:28:19;0.20;;;0.20;;
32152;SDS011;18656;50.580;11.392;2023-02-03T11:30:53;0.35;;;0.10;;
32152;SDS011;18656;50.580;11.392;2023-02-03T11:35:57;0.10;;;0.10;;
32152;SDS011;18656;50.580;11.392;2023-02-03T11:38:27;0.30;;;0.30;;
32152;SDS011;18656;50.580;11.392;2023-02-03T11:40:57;0.20;;;0.20;;
32152;SDS011;18656;50.580;11.392;2023-02-03T11:43:25;0.65;;;0.30;;
32152;SDS011;18656;50.580;11.392;2023-02-03T11:45:58;1.10;;;0.17;;
32152;SDS011;18656;50.580;11.392;2023-02-03T11:48:31;0.20;;;0.17;;
32152;SDS011;18656;50.580;11.392;2023-02-03T11:51:03;1.63;;;0.15;;
32152;SDS011;18656;50.580;11.392;2023-02-03T11:59:21;0.10;;;0.10;;
32152;SDS011;18656;50.580;11.392;2023-02-03T12:07:24;1.98;;;0.22;;
32152;SDS011;18656;50.580;11.392;2023-02-03T12:09:58;0.10;;;0.10;;
32152;SDS011;18656;50.580;11.392;2023-02-03T12:12:44;0.10;;;0.10;;
32152;SDS011;18656;50.580;11.392;2023-02-03T12:17:51;0.10;;;0.10;;
32152;SDS011;18656;50.580;11.392;2023-02-03T12:20:27;0.20;;;0.13;;
32152;SDS011;18656;50.580;11.392;2023-02-03T12:25:57;0.38;;;0.38;;
32152;SDS011;18656;50.580;11.392;2023-02-03T12:31:01;0.55;;;0.20;;
32152;SDS011;18656;50.580;11.392;2023-02-03T12:33:32;0.65;;;0.10;;
32152;SDS011;18656;50.580;11.392;2023-02-03T12:38:30;0.20;;;0.20;;
32152;SDS011;18656;50.580;11.392;2023-02-03T12:40:59;0.30;;;0.17;;
32152;SDS011;18656;50.580;11.392;2023-02-03T12:43:30;1.23;;;0.15;;
32152;SDS011;18656;50.580;11.392;2023-02-03T12:46:04;1.98;;;0.20;;
32152;SDS011;18656;50.580;11.392;2023-02-03T12:48:41;4.65;;;0.52;;
32152;SDS011;18656;50.580;11.392;2023-02-03T12:51:12;5.05;;;0.22;;
32152;SDS011;18656;50.580;11.392;2023-02-03T12:53:45;0.90;;;0.20;;
32152;SDS011;18656;50.580;11.392;2023-02-03T12:56:14;0.50;;;0.15;;
32152;SDS011;18656;50.580;11.392;2023-02-03T12:58:45;0.20;;;0.20;;
32152;SDS011;18656;50.580;11.392;2023-02-03T13:01:15;0.40;;;0.40;;
32152;SDS011;18656;50.580;11.392;2023-02-03T13:03:45;0.80;;;0.45;;
32152;SDS011;18656;50.580;11.392;2023-02-03T13:06:15;0.40;;;0.30;;
32152;SDS011;18656;50.580;11.392;2023-02-03T13:08:49;2.28;;;1.08;;
32152;SDS011;18656;50.580;11.392;2023-02-03T13:11:22;3.13;;;2.00;;
32152;SDS011;18656;50.580;11.392;2023-02-03T13:13:53;2.08;;;0.70;;
32152;SDS011;18656;50.580;11.392;2023-02-03T13:16:29;0.30;;;0.30;;
32152;SDS011;18656;50.580;11.392;2023-02-03T13:19:01;0.35;;;0.35;;
32152;SDS011;18656;50.580;11.392;2023-02-03T13:21:29;1.00;;;0.45;;
32152;SDS011;18656;50.580;11.392;2023-02-03T13:23:56;0.20;;;0.20;;
32152;SDS011;18656;50.580;11.392;2023-02-03T13:29:24;1.52;;;0.60;;
32152;SDS011;18656;50.580;11.392;2023-02-03T13:32:06;0.32;;;0.20;;
32152;SDS011;18656;50.580;11.392;2023-02-03T13:34:40;1.55;;;0.30;;
32152;SDS011;18656;50.580;11.392;2023-02-03T13:37:19;3.13;;;0.30;;
32152;SDS011;18656;50.580;11.392;2023-02-03T13:44:44;2.75;;;0.40;;
32152;SDS011;18656;50.580;11.392;2023-02-03T13:47:18;0.95;;;0.35;;
32152;SDS011;18656;50.580;11.392;2023-02-03T13:49:51;1.05;;;0.50;;
32152;SDS011;18656;50.580;11.392;2023-02-03T13:52:22;2.05;;;0.75;;
32152;SDS011;18656;50.580;11.392;2023-02-03T13:54:50;5.78;;;1.00;;
32152;SDS011;18656;50.580;11.392;2023-02-03T13:57:21;1.00;;;0.50;;
32152;SDS011;18656;50.580;11.392;2023-02-03T13:59:50;0.98;;;0.68;;
32152;SDS011;18656;50.580;11.392;2023-02-03T14:04:49;4.80;;;1.85;;
32152;SDS011;18656;50.580;11.392;2023-02-03T14:12:33;0.35;;;0.35;;
32152;SDS011;18656;50.580;11.392;2023-02-03T14:15:12;0.30;;;0.30;;
32152;SDS011;18656;50.580;11.392;2023-02-03T14:25:19;1.13;;;0.17;;
32152;SDS011;18656;50.580;11.392;2023-02-03T14:27:47;0.22;;;0.22;;
32152;SDS011;18656;50.580;11.392;2023-02-03T14:30:14;0.38;;;0.38;;
32152;SDS011;18656;50.580;11.392;2023-02-03T14:32:49;0.45;;;0.45;;
32152;SDS011;18656;50.580;11.392;2023-02-03T14:35:18;0.30;;;0.30;;
32152;SDS011;18656;50.580;11.392;2023-02-03T14:38:32;0.30;;;0.30;;
32152;SDS011;18656;50.580;11.392;2023-02-03T14:40:36;0.40;;;0.40;;
32152;SDS011;18656;50.580;11.392;2023-02-03T14:48:54;0.10;;;0.10;;
32152;SDS011;18656;50.580;11.392;2023-02-03T14:51:31;0.80;;;0.20;;
32152;SDS011;18656;50.580;11.392;2023-02-03T14:56:48;3.05;;;0.30;;
32152;SDS011;18656;50.580;11.392;2023-02-03T14:59:40;0.20;;;0.20;;
32152;SDS011;18656;50.580;11.392;2023-02-03T15:02:11;0.38;;;0.20;;
32152;SDS011;18656;50.580;11.392;2023-02-03T15:04:40;2.08;;;0.40;;
32152;SDS011;18656;50.580;11.392;2023-02-03T15:07:07;1.77;;;0.50;;
32152;SDS011;18656;50.580;11.392;2023-02-03T15:09:38;1.15;;;0.47;;
32152;SDS011;18656;50.580;11.392;2023-02-03T15:12:15;1.20;;;0.70;;
32152;SDS011;18656;50.580;11.392;2023-02-03T15:14:42;1.73;;;0.65;;
32152;SDS011;18656;50.580;11.392;2023-02-03T15:17:25;1.38;;;0.63;;
32152;SDS011;18656;50.580;11.392;2023-02-03T15:19:53;33.10;;;11.65;;
32152;SDS011;18656;50.580;11.392;2023-02-03T15:22:21;3.97;;;1.33;;
32152;SDS011;18656;50.580;11.392;2023-02-03T15:24:54;5.28;;;1.90;;
32152;SDS011;18656;50.580;11.392;2023-02-03T15:27:22;3.35;;;0.70;;
32152;SDS011;18656;50.580;11.392;2023-02-03T15:29:50;3.35;;;0.85;;
32152;SDS011;18656;50.580;11.392;2023-02-03T15:32:22;3.67;;;0.88;;
32152;SDS011;18656;50.580;11.392;2023-02-03T15:34:54;22.52;;;6.70;;
32152;SDS011;18656;50.580;11.392;2023-02-03T15:37:32;2.95;;;1.00;;
32152;SDS011;18656;50.580;11.392;2023-02-03T15:40:04;4.00;;;1.10;;
32152;SDS011;18656;50.580;11.392;2023-02-03T15:42:38;4.80;;;1.10;;
32152;SDS011;18656;50.580;11.392;2023-02-03T15:45:20;7.05;;;1.88;;
32152;SDS011;18656;50.580;11.392;2023-02-03T15:47:53;11.63;;;2.13;;
32152;SDS011;18656;50.580;11.392;2023-02-03T15:52:48;6.55;;;1.67;;
32152;SDS011;18656;50.580;11.392;2023-02-03T15:55:19;10.63;;;2.30;;
32152;SDS011;18656;50.580;11.392;2023-02-03T15:57:50;9.98;;;1.90;;
32152;SDS011;18656;50.580;11.392;2023-02-03T16:00:22;6.90;;;1.85;;
32152;SDS011;18656;50.580;11.392;2023-02-03T16:02:52;9.73;;;1.70;;
32152;SDS011;18656;50.580;11.392;2023-02-03T16:05:23;7.20;;;1.60;;
32152;SDS011;18656;50.580;11.392;2023-02-03T16:07:51;12.73;;;2.42;;
32152;SDS011;18656;50.580;11.392;2023-02-03T16:10:26;10.18;;;1.80;;
32152;SDS011;18656;50.580;11.392;2023-02-03T16:13:09;8.15;;;2.13;;
32152;SDS011;18656;50.580;11.392;2023-02-03T16:15:38;11.88;;;1.88;;
32152;SDS011;18656;50.580;11.392;2023-02-03T16:18:14;12.02;;;2.20;;
32152;SDS011;18656;50.580;11.392;2023-02-03T16:20:48;9.55;;;1.80;;
32152;SDS011;18656;50.580;11.392;2023-02-03T16:23:18;16.50;;;3.00;;
32152;SDS011;18656;50.580;11.392;2023-02-03T16:28:31;13.65;;;2.40;;
32152;SDS011;18656;50.580;11.392;2023-02-03T16:31:17;14.38;;;2.25;;
32152;SDS011;18656;50.580;11.392;2023-02-03T16:34:14;15.32;;;3.10;;
32152;SDS011;18656;50.580;11.392;2023-02-03T16:37:00;12.82;;;3.08;;
32152;SDS011;18656;50.580;11.392;2023-02-03T16:39:46;14.57;;;2.53;;